Time;durP1;ratioP1;P1;durP2;ratioP2;P2;SDS_P1;SDS_P2;PMS_P1;PMS_P2;Temp;Humidity;BMP_temperature;BMP_pressure;BME280_temperature;BME280_humidity;BME280_pressure;Samples;Min_cycle;Max_cycle;Signal;HPM_P1;HPM_P2
2021/09/09 00:01:11;;;;;;;20.08;11.32;;;18.10;94.90;;;;;;4993005;28;20037;-71
2021/09/09 00:03:36;;;;;;;22.77;11.23;;;18.20;94.70;;;;;;4993484;28;20117;-71
2021/09/09 00:06:02;;;;;;;20.20;11.48;;;18.20;95.20;;;;;;4993565;28;20238;-72
2021/09/09 00:08:28;;;;;;;17.80;10.43;;;18.10;95.20;;;;;;4993193;28;20034;-71
2021/09/09 00:10:54;;;;;;;15.05;9.93;;;18.20;95.20;;;;;;4993193;28;20093;-71
2021/09/09 00:13:19;;;;;;;20.38;11.40;;;18.10;95.40;;;;;;4993227;28;20030;-70
2021/09/09 00:15:45;;;;;;;20.52;10.85;;;18.00;95.50;;;;;;4993043;28;20030;-70
2021/09/09 00:18:10;;;;;;;20.63;11.93;;;18.00;95.60;;;;;;4993476;28;20022;-72
2021/09/09 00:20:36;;;;;;;22.73;11.68;;;17.90;95.60;;;;;;4992793;28;20468;-72
2021/09/09 00:23:02;;;;;;;21.90;11.43;;;17.90;95.70;;;;;;4992635;28;20054;-71
2021/09/09 00:25:28;;;;;;;22.80;11.43;;;17.80;95.70;;;;;;4991705;28;20053;-71
2021/09/09 00:27:53;;;;;;;19.75;11.77;;;17.80;95.80;;;;;;4992876;28;20520;-71
2021/09/09 00:30:19;;;;;;;20.92;11.73;;;17.80;95.90;;;;;;4992687;28;20025;-71
2021/09/09 00:32:45;;;;;;;19.83;12.18;;;17.70;96.00;;;;;;4992232;28;20049;-71
2021/09/09 00:35:12;;;;;;;25.17;12.85;;;17.60;96.10;;;;;;4992770;28;20491;-71
2021/09/09 00:37:37;;;;;;;20.07;12.57;;;17.60;96.20;;;;;;4992655;28;20049;-71
2021/09/09 00:40:04;;;;;;;21.92;11.73;;;17.60;96.20;;;;;;4992651;28;20268;-71
2021/09/09 00:42:30;;;;;;;23.90;12.88;;;17.60;96.30;;;;;;4992502;28;20504;-72
2021/09/09 00:44:55;;;;;;;22.15;12.88;;;17.60;96.10;;;;;;4992951;28;20037;-72
2021/09/09 00:47:21;;;;;;;25.27;12.23;;;17.80;95.90;;;;;;4992629;28;20104;-72
2021/09/09 00:49:46;;;;;;;21.42;12.20;;;17.70;96.20;;;;;;4992509;28;20035;-71
2021/09/09 00:52:13;;;;;;;22.85;12.02;;;17.60;96.10;;;;;;4992289;28;20436;-72
2021/09/09 00:54:44;;;;;;;23.73;12.70;;;17.50;96.20;;;;;;4992288;28;20471;-71
2021/09/09 00:57:10;;;;;;;23.05;13.25;;;17.50;96.30;;;;;;4992689;28;20420;-72
2021/09/09 00:59:36;;;;;;;22.02;12.48;;;17.50;96.40;;;;;;4992507;28;20026;-71
2021/09/09 01:02:03;;;;;;;20.42;12.30;;;17.50;96.40;;;;;;4992158;28;20108;-72
2021/09/09 01:04:29;;;;;;;23.10;12.85;;;17.40;96.40;;;;;;4992434;28;20122;-71
2021/09/09 01:06:56;;;;;;;27.02;13.77;;;17.40;96.50;;;;;;4992355;28;20124;-72
2021/09/09 01:09:22;;;;;;;22.63;12.57;;;17.40;96.50;;;;;;4992188;28;20445;-72
2021/09/09 01:11:47;;;;;;;24.88;13.57;;;17.40;96.90;;;;;;4991673;28;20100;-71
2021/09/09 01:14:15;;;;;;;22.60;13.32;;;17.40;96.50;;;;;;4991372;28;20038;-72
2021/09/09 01:16:42;;;;;;;22.73;12.63;;;17.40;96.60;;;;;;4990935;28;20044;-71
2021/09/09 01:19:09;;;;;;;22.77;12.93;;;17.30;96.70;;;;;;4990968;28;20042;-72
2021/09/09 01:21:35;;;;;;;20.33;12.77;;;17.30;96.70;;;;;;4991861;28;20117;-71
2021/09/09 01:24:02;;;;;;;22.17;12.52;;;17.30;96.70;;;;;;4992601;28;20105;-71
2021/09/09 01:26:29;;;;;;;24.47;13.93;;;17.30;96.70;;;;;;4992123;28;20046;-72
2021/09/09 01:28:57;;;;;;;21.42;13.27;;;17.30;96.70;;;;;;4992151;28;20034;-71
2021/09/09 01:31:23;;;;;;;20.70;12.35;;;17.30;96.70;;;;;;4991860;28;20042;-72
2021/09/09 01:33:54;;;;;;;25.50;13.73;;;17.20;96.70;;;;;;4991932;28;20129;-72
2021/09/09 01:36:20;;;;;;;25.95;12.98;;;17.20;96.80;;;;;;4979199;28;20026;-71
2021/09/09 01:38:46;;;;;;;20.17;12.18;;;17.20;96.80;;;;;;4973010;28;20027;-71
2021/09/09 01:41:11;;;;;;;21.98;13.18;;;17.20;96.70;;;;;;4972626;28;20342;-72
2021/09/09 01:43:37;;;;;;;21.38;12.63;;;17.20;96.90;;;;;;4972520;28;20732;-71
2021/09/09 01:46:02;;;;;;;22.75;12.95;;;17.00;96.80;;;;;;4972478;28;20514;-70
2021/09/09 01:48:29;;;;;;;24.65;13.30;;;17.00;96.90;;;;;;4972380;28;20038;-72
2021/09/09 01:50:54;;;;;;;22.63;13.35;;;17.10;97.10;;;;;;4972916;28;20054;-72
2021/09/09 01:53:20;;;;;;;24.60;14.63;;;17.00;96.90;;;;;;4972452;28;20059;-72
2021/09/09 01:55:46;;;;;;;21.50;12.77;;;17.00;97.00;;;;;;4972631;28;20031;-73
2021/09/09 01:58:11;;;;;;;26.83;13.85;;;17.00;97.20;;;;;;4972474;28;20031;-72
2021/09/09 02:00:37;;;;;;;22.80;12.43;;;17.10;97.40;;;;;;4972308;28;20031;-72
2021/09/09 02:03:02;;;;;;;22.48;11.75;;;17.00;97.20;;;;;;4971737;28;20076;-71
2021/09/09 02:05:29;;;;;;;25.38;13.98;;;17.00;97.00;;;;;;4972204;28;20038;-71
2021/09/09 02:07:54;;;;;;;24.70;13.27;;;17.00;97.10;;;;;;4972053;28;20102;-72
2021/09/09 02:10:21;;;;;;;26.10;12.88;;;16.90;97.30;;;;;;4972418;28;20069;-70
2021/09/09 02:12:48;;;;;;;21.77;13.50;;;16.90;97.40;;;;;;4972386;28;20031;-72
2021/09/09 02:15:14;;;;;;;23.50;13.52;;;16.90;97.50;;;;;;4972302;28;20054;-71
2021/09/09 02:17:39;;;;;;;27.65;13.23;;;16.90;97.30;;;;;;4972647;28;20455;-71
2021/09/09 02:20:09;;;;;;;19.75;12.80;;;16.90;97.40;;;;;;4972137;28;20035;-72
2021/09/09 02:22:35;;;;;;;29.40;14.57;;;16.90;97.50;;;;;;4971851;28;20062;-72
2021/09/09 02:25:01;;;;;;;26.55;14.68;;;16.90;97.60;;;;;;4974273;28;20065;-72
2021/09/09 02:27:27;;;;;;;26.20;14.55;;;16.90;97.50;;;;;;4975593;28;20055;-71
2021/09/09 02:29:53;;;;;;;27.13;15.05;;;16.90;97.50;;;;;;4976068;28;20025;-72
2021/09/09 02:32:18;;;;;;;23.80;13.27;;;16.90;97.50;;;;;;4975522;28;20030;-71
2021/09/09 02:34:44;;;;;;;20.45;12.88;;;16.90;97.70;;;;;;4975488;28;20035;-72
2021/09/09 02:37:09;;;;;;;20.95;13.38;;;16.90;97.70;;;;;;4975310;28;20038;-70
2021/09/09 02:39:36;;;;;;;22.27;13.65;;;16.90;97.60;;;;;;4975408;28;20503;-72
2021/09/09 02:42:02;;;;;;;27.00;14.13;;;16.90;97.70;;;;;;4975848;28;20022;-71
2021/09/09 02:44:28;;;;;;;28.88;14.88;;;16.80;97.70;;;;;;4975437;28;20045;-71
2021/09/09 02:46:54;;;;;;;23.15;13.60;;;16.80;97.70;;;;;;4975309;28;20365;-71
2021/09/09 02:49:20;;;;;;;29.67;16.48;;;16.90;97.60;;;;;;4975204;28;20031;-71
2021/09/09 02:51:45;;;;;;;25.83;14.73;;;16.80;97.80;;;;;;4975014;28;20027;-71
2021/09/09 02:54:11;;;;;;;27.88;15.50;;;16.90;97.80;;;;;;4975344;28;20503;-72
2021/09/09 02:56:37;;;;;;;29.08;16.02;;;16.90;97.70;;;;;;4974125;28;20097;-72
2021/09/09 02:59:02;;;;;;;23.02;14.32;;;16.90;97.80;;;;;;4975120;28;20089;-72
2021/09/09 03:01:28;;;;;;;26.92;14.38;;;16.90;97.70;;;;;;4975219;28;20416;-70
2021/09/09 03:03:53;;;;;;;23.90;14.40;;;16.80;97.80;;;;;;4975080;28;20035;-72
2021/09/09 03:06:19;;;;;;;24.35;14.27;;;16.80;97.90;;;;;;4974954;28;20126;-72
2021/09/09 03:08:44;;;;;;;22.35;14.93;;;16.70;97.80;;;;;;4974241;28;20437;-72
2021/09/09 03:11:10;;;;;;;23.90;14.50;;;16.70;97.80;;;;;;4975127;28;20042;-72
2021/09/09 03:13:36;;;;;;;30.48;16.30;;;16.70;97.90;;;;;;4974811;28;20113;-72
2021/09/09 03:16:01;;;;;;;30.17;16.00;;;16.70;97.90;;;;;;4974766;28;20031;-72
2021/09/09 03:18:27;;;;;;;26.73;15.38;;;16.70;98.10;;;;;;4974748;28;20023;-72
2021/09/09 03:20:52;;;;;;;26.98;15.40;;;16.70;98.10;;;;;;4974192;28;20019;-72
2021/09/09 03:23:19;;;;;;;26.27;15.27;;;16.70;98.00;;;;;;4974652;28;20087;-72
2021/09/09 03:25:44;;;;;;;27.80;15.55;;;16.70;98.00;;;;;;4973389;28;20035;-72
2021/09/09 03:28:10;;;;;;;30.40;15.82;;;16.70;98.10;;;;;;4974672;28;20027;-72
2021/09/09 03:30:36;;;;;;;27.70;16.25;;;16.60;98.00;;;;;;4974300;28;20501;-72
2021/09/09 03:33:02;;;;;;;26.98;14.57;;;16.70;98.00;;;;;;4974821;28;20133;-72
2021/09/09 03:35:27;;;;;;;29.10;15.55;;;16.60;98.00;;;;;;4973917;28;20067;-72
2021/09/09 03:37:53;;;;;;;24.83;15.75;;;16.60;98.00;;;;;;4974010;28;20049;-72
2021/09/09 03:40:19;;;;;;;28.08;16.55;;;16.60;98.20;;;;;;4974495;28;20046;-72
2021/09/09 03:42:45;;;;;;;28.25;16.98;;;16.60;98.10;;;;;;4974271;28;20472;-72
2021/09/09 03:45:11;;;;;;;31.83;16.45;;;16.60;98.10;;;;;;4974967;28;20030;-72
2021/09/09 03:47:36;;;;;;;28.08;16.38;;;16.50;98.20;;;;;;4974347;28;20022;-72
2021/09/09 03:50:03;;;;;;;25.52;15.15;;;16.60;98.00;;;;;;4974155;28;20547;-73
2021/09/09 03:52:28;;;;;;;29.33;17.17;;;16.60;97.80;;;;;;4974304;28;20035;-72
2021/09/09 03:54:54;;;;;;;29.58;15.98;;;16.70;97.80;;;;;;4974023;28;20054;-72
2021/09/09 03:57:19;;;;;;;26.35;15.73;;;16.60;97.90;;;;;;4974116;28;20369;-72
2021/09/09 03:59:45;;;;;;;35.25;17.73;;;16.60;97.70;;;;;;4974632;28;20444;-72
2021/09/09 04:02:11;;;;;;;28.27;17.23;;;16.60;97.90;;;;;;4973983;28;20721;-71
2021/09/09 04:04:36;;;;;;;27.08;16.13;;;16.50;97.90;;;;;;4973521;28;20041;-72
2021/09/09 04:07:02;;;;;;;26.80;15.25;;;16.50;98.00;;;;;;4973896;28;20540;-72
2021/09/09 04:09:28;;;;;;;28.13;15.80;;;16.40;98.00;;;;;;4973656;28;20023;-72
2021/09/09 04:11:53;;;;;;;30.15;16.13;;;16.30;98.10;;;;;;4974553;28;20065;-71
2021/09/09 04:14:19;;;;;;;28.88;15.40;;;16.30;98.10;;;;;;4973974;28;20031;-72
2021/09/09 04:16:45;;;;;;;29.20;16.45;;;16.30;98.20;;;;;;4973716;28;20059;-73
2021/09/09 04:19:10;;;;;;;33.53;17.05;;;16.30;98.20;;;;;;4973715;28;20118;-72
2021/09/09 04:21:36;;;;;;;30.90;17.00;;;16.30;98.20;;;;;;4973188;28;20043;-72
2021/09/09 04:24:01;;;;;;;28.10;16.05;;;16.30;98.30;;;;;;4973920;28;20015;-72
2021/09/09 04:26:27;;;;;;;26.25;16.52;;;16.20;98.20;;;;;;4973677;28;20041;-72
2021/09/09 04:28:52;;;;;;;28.90;16.75;;;16.20;98.20;;;;;;4973464;28;20396;-72
2021/09/09 04:31:18;;;;;;;35.80;16.80;;;16.20;98.20;;;;;;4972658;28;20102;-72
2021/09/09 04:33:44;;;;;;;27.88;16.70;;;16.20;98.20;;;;;;4973406;28;20027;-71
2021/09/09 04:36:09;;;;;;;32.33;17.23;;;16.10;98.30;;;;;;4973812;28;20114;-72
2021/09/09 04:38:35;;;;;;;27.75;16.92;;;16.10;98.30;;;;;;4973162;28;20038;-70
2021/09/09 04:41:00;;;;;;;32.22;16.40;;;16.00;98.40;;;;;;4973584;28;20022;-72
2021/09/09 04:43:26;;;;;;;30.05;17.80;;;16.00;98.60;;;;;;4973410;28;20027;-72
2021/09/09 04:45:52;;;;;;;29.35;17.17;;;16.00;98.30;;;;;;4973124;28;20030;-73
2021/09/09 04:48:17;;;;;;;30.60;18.77;;;16.00;98.40;;;;;;4973502;28;20023;-72
2021/09/09 04:50:43;;;;;;;31.33;17.40;;;16.00;98.40;;;;;;4972286;28;20193;-73
2021/09/09 04:53:09;;;;;;;34.83;18.05;;;16.10;98.20;;;;;;4973235;28;20088;-72
2021/09/09 04:55:34;;;;;;;29.83;17.98;;;16.10;98.10;;;;;;4973108;28;20057;-72
2021/09/09 04:58:00;;;;;;;33.53;17.40;;;16.10;98.10;;;;;;4972997;28;20117;-72
2021/09/09 05:00:26;;;;;;;37.75;18.10;;;16.10;98.20;;;;;;4972214;28;20385;-73
2021/09/09 05:02:54;;;;;;;32.53;18.67;;;16.10;98.20;;;;;;4973299;28;20066;-73
2021/09/09 05:05:19;;;;;;;30.05;17.10;;;16.00;98.50;;;;;;4972801;28;20117;-72
2021/09/09 05:07:45;;;;;;;26.85;16.58;;;16.00;98.40;;;;;;4972735;28;20118;-72
2021/09/09 05:10:12;;;;;;;30.05;17.83;;;16.00;98.60;;;;;;4972527;28;20038;-72
2021/09/09 05:12:38;;;;;;;31.27;18.23;;;16.00;98.40;;;;;;4972781;28;20034;-72
2021/09/09 05:15:04;;;;;;;33.22;17.77;;;16.10;98.30;;;;;;4973114;28;20041;-71
2021/09/09 05:17:30;;;;;;;39.15;19.10;;;16.10;98.50;;;;;;4972689;28;20380;-71
2021/09/09 05:19:56;;;;;;;32.53;17.67;;;16.10;98.40;;;;;;4972463;28;20030;-72
2021/09/09 05:22:21;;;;;;;29.48;17.92;;;16.00;98.60;;;;;;4972624;28;20074;-72
2021/09/09 05:24:47;;;;;;;31.17;17.42;;;16.00;98.50;;;;;;4972485;28;20045;-72
2021/09/09 05:27:12;;;;;;;31.88;17.33;;;16.00;98.50;;;;;;4973247;28;20102;-73
2021/09/09 05:29:38;;;;;;;32.08;17.65;;;16.00;98.70;;;;;;4972644;28;20473;-73
2021/09/09 05:32:04;;;;;;;28.42;16.77;;;16.00;98.60;;;;;;4971283;28;20038;-71
2021/09/09 05:34:30;;;;;;;31.20;17.40;;;16.00;98.60;;;;;;4972344;28;20034;-72
2021/09/09 05:36:55;;;;;;;35.15;18.92;;;16.10;98.70;;;;;;4972338;28;20039;-73
2021/09/09 05:39:21;;;;;;;32.80;17.88;;;16.10;98.50;;;;;;4972758;28;20042;-70
2021/09/09 05:41:47;;;;;;;30.88;18.15;;;16.20;98.40;;;;;;4972836;28;20047;-73
2021/09/09 05:44:12;;;;;;;37.05;18.25;;;16.20;98.40;;;;;;4972535;28;20039;-72
2021/09/09 05:46:38;;;;;;;28.92;16.98;;;16.30;98.40;;;;;;4972035;28;20487;-70
2021/09/09 05:49:03;;;;;;;32.38;18.60;;;16.30;98.30;;;;;;4970591;28;20039;-70
2021/09/09 05:51:29;;;;;;;38.92;18.30;;;16.30;98.60;;;;;;4971870;28;20022;-70
2021/09/09 05:53:55;;;;;;;35.63;19.63;;;16.30;98.50;;;;;;4972152;28;20037;-70
2021/09/09 05:56:20;;;;;;;33.75;18.48;;;16.40;98.40;;;;;;4971960;28;20038;-70
2021/09/09 05:58:46;;;;;;;37.22;19.45;;;16.40;98.50;;;;;;4974843;28;20022;-71
2021/09/09 06:01:11;;;;;;;32.83;18.27;;;16.50;98.50;;;;;;4995026;28;20203;-72
2021/09/09 06:03:37;;;;;;;29.25;18.77;;;16.50;98.50;;;;;;4994975;28;20023;-71
2021/09/09 06:06:04;;;;;;;32.97;17.83;;;16.40;98.60;;;;;;4995573;28;20045;-71
2021/09/09 06:08:31;;;;;;;34.35;18.95;;;16.40;98.80;;;;;;4995257;28;20540;-71
2021/09/09 06:10:57;;;;;;;29.60;18.27;;;16.30;98.90;;;;;;4994935;28;20053;-71
2021/09/09 06:13:23;;;;;;;32.33;19.27;;;16.40;99.00;;;;;;4995070;28;20043;-70
2021/09/09 06:15:52;;;;;;;30.35;18.58;;;16.40;99.00;;;;;;4995019;28;20039;-71
2021/09/09 06:18:17;;;;;;;38.88;19.25;;;16.40;98.90;;;;;;4994768;28;20583;-70
2021/09/09 06:20:43;;;;;;;31.40;18.80;;;16.50;98.90;;;;;;4995241;28;20110;-71
2021/09/09 06:23:08;;;;;;;35.45;17.85;;;16.60;98.80;;;;;;4994803;28;20380;-71
2021/09/09 06:25:34;;;;;;;35.10;18.08;;;16.60;98.70;;;;;;4994562;28;20109;-71
2021/09/09 06:27:59;;;;;;;34.00;19.00;;;16.60;98.80;;;;;;4994662;28;20030;-71
2021/09/09 06:30:25;;;;;;;32.60;18.73;;;16.60;98.90;;;;;;4993385;28;20153;-70
2021/09/09 06:32:51;;;;;;;43.97;22.20;;;16.70;99.00;;;;;;4994981;28;20026;-72
2021/09/09 06:35:16;;;;;;;56.33;31.40;;;16.80;98.90;;;;;;4994526;28;20023;-71
2021/09/09 06:37:42;;;;;;;43.05;24.38;;;16.90;98.60;;;;;;4994485;28;20512;-70
2021/09/09 06:40:08;;;;;;;38.15;18.80;;;17.00;98.80;;;;;;4994556;28;20045;-70
2021/09/09 06:42:34;;;;;;;33.92;17.27;;;17.00;98.60;;;;;;4994642;28;20087;-71
2021/09/09 06:45:00;;;;;;;34.72;18.55;;;17.10;98.40;;;;;;4995115;28;20057;-71
2021/09/09 06:47:25;;;;;;;28.65;17.20;;;17.20;98.30;;;;;;4994510;28;20482;-72
2021/09/09 06:49:51;;;;;;;29.65;17.08;;;17.20;98.40;;;;;;4994121;28;20022;-71
2021/09/09 06:52:16;;;;;;;35.65;19.58;;;17.20;98.60;;;;;;4994299;28;20034;-71
2021/09/09 06:54:42;;;;;;;31.90;16.50;;;17.30;98.70;;;;;;4993038;28;20038;-72
2021/09/09 06:57:08;;;;;;;32.05;20.13;;;17.40;98.60;;;;;;4994558;28;20058;-73
2021/09/09 06:59:34;;;;;;;30.17;16.70;;;17.40;98.50;;;;;;4994206;28;20026;-73
2021/09/09 07:01:59;;;;;;;28.88;15.48;;;17.40;98.40;;;;;;4994116;28;20041;-74
2021/09/09 07:04:25;;;;;;;34.65;15.90;;;17.50;98.20;;;;;;4994144;28;20041;-74
2021/09/09 07:06:51;;;;;;;28.33;15.90;;;17.60;98.30;;;;;;4993928;28;20058;-74
2021/09/09 07:09:16;;;;;;;33.35;17.52;;;17.70;98.30;;;;;;4994001;28;20027;-73
2021/09/09 07:11:42;;;;;;;31.48;17.02;;;17.70;98.40;;;;;;4993502;28;20023;-74
2021/09/09 07:14:08;;;;;;;31.65;18.00;;;17.80;98.30;;;;;;4993953;28;20031;-74
2021/09/09 07:16:33;;;;;;;31.25;16.50;;;17.80;98.20;;;;;;4995016;28;20046;-74
2021/09/09 07:18:59;;;;;;;33.10;15.65;;;17.90;98.30;;;;;;4993896;28;20342;-74
2021/09/09 07:21:24;;;;;;;24.05;15.10;;;18.00;98.20;;;;;;4993354;28;20092;-73
2021/09/09 07:23:50;;;;;;;24.25;15.35;;;18.00;98.30;;;;;;4994236;28;20088;-74
2021/09/09 07:26:16;;;;;;;27.83;15.23;;;18.00;98.10;;;;;;4993586;28;20156;-73
2021/09/09 07:28:42;;;;;;;20.75;13.73;;;18.20;97.80;;;;;;4993801;28;20189;-74
2021/09/09 07:31:07;;;;;;;23.80;13.63;;;18.20;97.90;;;;;;4993734;28;20034;-74
2021/09/09 07:33:33;;;;;;;25.48;13.65;;;18.30;97.70;;;;;;4993541;28;20061;-73
2021/09/09 07:35:58;;;;;;;22.50;13.45;;;18.40;97.50;;;;;;4994148;28;20037;-75
2021/09/09 07:38:24;;;;;;;20.05;13.45;;;18.40;97.50;;;;;;4993354;28;20030;-76
2021/09/09 07:40:49;;;;;;;23.95;13.30;;;18.50;97.50;;;;;;4993655;28;20022;-74
2021/09/09 07:43:15;;;;;;;21.80;12.27;;;18.50;97.50;;;;;;4992376;28;20026;-73
2021/09/09 07:45:41;;;;;;;21.75;12.70;;;18.60;97.40;;;;;;4993263;28;20045;-74
2021/09/09 07:48:07;;;;;;;22.13;13.77;;;18.70;97.50;;;;;;4992800;28;20456;-73
2021/09/09 07:50:32;;;;;;;22.85;13.65;;;18.70;97.40;;;;;;4993294;28;20169;-73
2021/09/09 07:52:58;;;;;;;29.17;13.27;;;18.80;97.30;;;;;;4993171;28;20077;-74
2021/09/09 07:55:25;;;;;;;22.13;12.35;;;18.90;97.20;;;;;;4993127;28;20042;-73
2021/09/09 07:57:50;;;;;;;26.35;14.50;;;19.00;97.00;;;;;;4991786;28;20038;-72
2021/09/09 08:00:16;;;;;;;20.15;12.07;;;19.10;97.00;;;;;;4993009;28;20041;-74
2021/09/09 08:02:42;;;;;;;22.42;11.23;;;19.20;96.90;;;;;;4993350;28;20027;-73
2021/09/09 08:05:08;;;;;;;16.42;10.77;;;19.30;96.80;;;;;;4993204;28;20030;-74
2021/09/09 08:07:45;;;;;;;21.92;11.23;;;19.40;96.90;;;;;;4992951;28;20043;-73
2021/09/09 08:10:13;;;;;;;18.10;10.00;;;19.50;96.80;;;;;;4993003;28;20045;-74
2021/09/09 08:12:40;;;;;;;19.52;9.70;;;19.60;96.30;;;;;;4992807;28;20038;-76
2021/09/09 08:15:07;;;;;;;18.80;8.85;;;19.80;95.80;;;;;;4993241;28;20034;-75
2021/09/09 08:17:33;;;;;;;16.90;8.40;;;19.90;95.20;;;;;;4992673;28;20141;-74
2021/09/09 08:19:59;;;;;;;15.85;9.55;;;20.10;95.10;;;;;;4992632;28;20034;-74
2021/09/09 08:22:26;;;;;;;17.35;8.73;;;20.70;94.80;;;;;;4991059;28;20511;-73
2021/09/09 08:24:52;;;;;;;22.95;11.10;;;21.90;93.50;;;;;;4992566;28;20045;-74
2021/09/09 08:27:18;;;;;;;16.83;9.38;;;23.40;93.60;;;;;;4992701;28;20098;-74
2021/09/09 08:29:43;;;;;;;14.38;8.48;;;24.60;91.50;;;;;;4992964;28;20535;-73
2021/09/09 08:32:09;;;;;;;14.27;8.00;;;25.70;91.00;;;;;;4992476;28;20469;-74
2021/09/09 08:34:34;;;;;;;13.70;7.80;;;26.80;86.30;;;;;;4993008;28;20510;-74
2021/09/09 08:37:00;;;;;;;10.80;7.05;;;27.50;82.80;;;;;;4993877;28;20479;-73
2021/09/09 08:39:25;;;;;;;26.10;12.30;;;28.40;79.70;;;;;;4992084;28;20035;-75
2021/09/09 08:41:54;;;;;;;19.20;8.80;;;29.10;78.20;;;;;;4993008;28;20093;-74
2021/09/09 08:44:21;;;;;;;13.90;7.68;;;29.50;75.50;;;;;;4992389;28;20662;-75
2021/09/09 08:46:46;;;;;;;14.77;6.95;;;30.30;71.80;;;;;;4992287;28;20065;-74
2021/09/09 08:49:13;;;;;;;15.27;7.60;;;31.20;69.20;;;;;;4992074;28;20453;-75
2021/09/09 08:51:39;;;;;;;9.43;6.13;;;31.60;68.60;;;;;;4991704;28;20042;-74
2021/09/09 08:54:05;;;;;;;19.33;10.55;;;31.90;65.00;;;;;;4993756;28;20260;-73
2021/09/09 08:56:31;;;;;;;21.33;10.20;;;32.10;64.50;;;;;;4992058;28;20118;-74
2021/09/09 08:58:56;;;;;;;11.57;7.72;;;32.40;63.80;;;;;;4991558;28;20109;-72
2021/09/09 09:01:22;;;;;;;10.95;6.75;;;32.40;59.30;;;;;;4992081;28;20141;-73
2021/09/09 09:03:49;;;;;;;20.35;7.03;;;32.30;59.90;;;;;;4991775;28;20457;-72
2021/09/09 09:06:27;;;;;;;9.55;6.53;;;32.40;58.70;;;;;;4992191;28;20022;-73
2021/09/09 09:08:53;;;;;;;11.45;6.10;;;32.70;58.10;;;;;;4992154;28;20018;-73
2021/09/09 09:11:33;;;;;;;11.77;7.07;;;33.10;57.20;;;;;;4991858;28;20054;-72
2021/09/09 09:14:00;;;;;;;11.27;6.90;;;33.30;57.10;;;;;;4990659;28;20738;-71
2021/09/09 09:16:27;;;;;;;13.27;6.28;;;33.00;56.70;;;;;;4991746;28;20046;-71
2021/09/09 09:18:53;;;;;;;8.57;5.80;;;33.20;56.40;;;;;;4991782;28;20049;-71
2021/09/09 09:21:21;;;;;;;9.93;6.75;;;33.30;56.00;;;;;;4991104;28;20030;-70
2021/09/09 09:23:59;;;;;;;8.88;6.93;;;33.60;54.30;;;;;;4991874;28;20101;-70
2021/09/09 09:26:26;;;;;;;10.93;6.93;;;33.10;53.90;;;;;;4991613;28;20364;-71
2021/09/09 09:28:57;;;;;;;13.00;7.00;;;33.80;54.70;;;;;;4991652;28;20035;-71
2021/09/09 09:31:28;;;;;;;10.73;6.15;;;34.20;53.10;;;;;;4991871;28;20566;-72
2021/09/09 09:33:59;;;;;;;7.72;6.28;;;34.40;53.50;;;;;;4991094;28;20049;-71
2021/09/09 09:36:30;;;;;;;9.32;6.40;;;34.30;52.20;;;;;;4991493;28;20168;-72
2021/09/09 09:39:09;;;;;;;10.35;6.68;;;34.00;52.50;;;;;;4992077;28;20044;-70
2021/09/09 09:41:37;;;;;;;9.02;6.47;;;34.90;51.70;;;;;;4991638;28;20185;-71
2021/09/09 09:44:08;;;;;;;13.65;6.80;;;34.90;51.20;;;;;;4991661;28;20093;-71
2021/09/09 09:46:36;;;;;;;10.27;6.65;;;34.40;50.60;;;;;;4991528;28;20053;-71
2021/09/09 09:49:24;;;;;;;9.50;6.32;;;34.80;50.30;;;;;;4991480;28;20041;-71
2021/09/09 09:51:52;;;;;;;17.83;13.60;;;35.20;49.50;;;;;;4991356;28;20030;-71
2021/09/09 09:54:20;;;;;;;15.43;6.68;;;34.80;49.50;;;;;;4990235;28;20037;-72
2021/09/09 09:56:47;;;;;;;9.63;6.72;;;34.90;50.00;;;;;;4991687;28;20022;-71
2021/09/09 09:59:13;;;;;;;;;;;35.70;49.30;;;;;;4990942;28;20033;-72
2021/09/09 10:01:38;;;;;;;13.93;6.53;;;36.20;48.30;;;;;;4990084;28;19926;-71
2021/09/09 10:04:07;;;;;;;12.10;6.85;;;36.30;48.70;;;;;;4991178;28;20035;-71
2021/09/09 10:06:34;;;;;;;12.23;6.50;;;36.10;47.90;;;;;;4991225;28;20056;-71
2021/09/09 10:09:02;;;;;;;10.27;6.20;;;36.50;47.00;;;;;;4991770;28;20037;-71
2021/09/09 10:11:28;;;;;;;11.52;6.72;;;36.40;47.50;;;;;;4991270;28;20049;-71
2021/09/09 10:13:59;;;;;;;8.95;6.03;;;37.30;46.20;;;;;;4991429;28;20468;-71
2021/09/09 10:16:30;;;;;;;9.52;6.15;;;37.40;45.40;;;;;;4991196;28;20038;-71
2021/09/09 10:18:56;;;;;;;11.63;6.55;;;37.60;44.50;;;;;;4991214;28;20044;-71
2021/09/09 10:21:44;;;;;;;11.70;7.00;;;37.30;44.10;;;;;;4990781;28;20026;-71
2021/09/09 10:24:20;;;;;;;14.02;8.55;;;38.00;43.60;;;;;;4991181;28;20053;-72
2021/09/09 10:26:48;;;;;;;11.05;7.32;;;37.60;43.70;;;;;;4991104;28;20046;-73
2021/09/09 10:29:42;;;;;;;7.93;6.20;;;37.70;43.10;;;;;;4991068;28;20034;-72
2021/09/09 10:32:28;;;;;;;11.38;6.25;;;38.00;42.60;;;;;;4991114;28;20057;-72
2021/09/09 10:35:19;;;;;;;9.27;6.00;;;37.90;44.10;;;;;;4990819;28;20045;-73
2021/09/09 10:38:11;;;;;;;9.60;6.20;;;38.70;42.10;;;;;;4990713;28;20045;-73
2021/09/09 10:40:43;;;;;;;11.98;5.95;;;38.30;42.60;;;;;;4989894;28;20467;-74
2021/09/09 10:43:14;;;;;;;10.40;6.20;;;38.10;43.10;;;;;;4990812;28;20038;-74
2021/09/09 10:45:43;;;;;;;11.63;6.53;;;38.90;42.60;;;;;;4992219;28;20027;-72
2021/09/09 10:48:14;;;;;;;7.68;5.72;;;38.40;41.60;;;;;;4994775;28;20110;-76
2021/09/09 10:50:55;;;;;;;8.80;6.47;;;38.00;42.10;;;;;;4994269;28;20062;-71
2021/09/09 10:53:54;;;;;;;11.50;6.70;;;37.30;42.20;;;;;;4994177;28;20034;-72
2021/09/09 10:56:32;;;;;;;79.97;57.00;;;37.50;42.10;;;;;;4994106;28;20027;-71
2021/09/09 10:59:10;;;;;;;45.65;34.17;;;37.30;43.50;;;;;;4994367;28;20037;-72
2021/09/09 11:01:37;;;;;;;18.70;11.50;;;37.20;43.20;;;;;;4994486;28;20073;-68
2021/09/09 11:04:03;;;;;;;9.02;6.07;;;37.30;43.60;;;;;;4994225;28;20026;-70
2021/09/09 11:06:29;;;;;;;12.85;6.72;;;37.40;41.90;;;;;;4994291;28;20035;-71
2021/09/09 11:09:10;;;;;;;11.27;6.07;;;37.60;42.10;;;;;;4994350;28;20025;-70
2021/09/09 11:11:36;;;;;;;12.15;6.88;;;37.40;41.80;;;;;;4993795;28;20100;-70
2021/09/09 11:14:04;;;;;;;11.43;6.35;;;37.00;42.90;;;;;;4993895;28;20093;-69
2021/09/09 11:16:33;;;;;;;9.35;6.43;;;37.40;41.60;;;;;;4993932;28;20034;-69
2021/09/09 11:18:58;;;;;;;7.57;6.32;;;36.60;42.50;;;;;;4993850;28;20113;-71
2021/09/09 11:21:28;;;;;;;9.07;5.85;;;36.60;43.40;;;;;;4993332;28;20109;-70
2021/09/09 11:24:03;;;;;;;7.80;5.70;;;36.80;42.80;;;;;;4994181;28;20475;-70
2021/09/09 11:26:29;;;;;;;7.18;6.20;;;36.10;43.30;;;;;;4993668;28;20034;-70
2021/09/09 11:28:57;;;;;;;12.88;6.10;;;35.40;44.00;;;;;;4992522;28;20101;-69
2021/09/09 11:31:28;;;;;;;9.25;7.15;;;35.30;44.70;;;;;;4992520;28;20073;-70
2021/09/09 11:34:02;;;;;;;9.05;6.90;;;35.70;43.90;;;;;;4993499;28;20690;-69
2021/09/09 11:36:38;;;;;;;10.02;6.28;;;35.20;44.40;;;;;;4993243;28;20035;-70
2021/09/09 11:39:18;;;;;;;9.60;6.63;;;34.40;45.80;;;;;;4993851;28;20030;-70
2021/09/09 11:41:43;;;;;;;15.02;9.77;;;33.60;46.90;;;;;;4993495;28;20034;-70
2021/09/09 11:44:30;;;;;;;9.95;6.90;;;33.10;48.30;;;;;;4993325;28;20037;-70
2021/09/09 11:47:08;;;;;;;8.50;6.35;;;33.20;48.60;;;;;;4992894;28;20034;-69
2021/09/09 11:49:34;;;;;;;16.50;7.70;;;32.70;47.90;;;;;;4991956;28;20057;-70
2021/09/09 11:51:59;;;;;;;10.68;6.10;;;32.50;49.10;;;;;;4993162;28;20031;-70
2021/09/09 11:54:29;;;;;;;10.98;6.15;;;32.30;49.10;;;;;;4993183;28;20030;-70
2021/09/09 11:57:21;;;;;;;7.80;5.88;;;31.90;49.40;;;;;;4992892;28;20364;-71
2021/09/09 11:59:55;;;;;;;9.57;6.15;;;31.80;49.70;;;;;;4970986;28;20185;-70
2021/09/09 12:02:22;;;;;;;8.75;6.30;;;31.80;50.10;;;;;;4990367;28;20036;-70
2021/09/09 12:04:48;;;;;;;10.45;6.15;;;31.60;50.30;;;;;;4992682;28;20424;-70
2021/09/09 12:07:23;;;;;;;18.90;9.18;;;31.20;50.50;;;;;;4991507;28;20035;-70
2021/09/09 12:09:53;;;;;;;9.15;6.40;;;31.00;52.00;;;;;;4992878;28;20446;-70
2021/09/09 12:12:19;;;;;;;8.13;6.70;;;31.20;51.90;;;;;;4993030;28;20108;-71
2021/09/09 12:14:55;;;;;;;9.32;5.82;;;31.00;51.60;;;;;;4993351;28;20345;-70
2021/09/09 12:17:20;;;;;;;9.32;5.63;;;30.80;51.60;;;;;;4992603;28;20041;-70
2021/09/09 12:20:07;;;;;;;8.88;5.75;;;30.60;51.30;;;;;;4992684;28;20034;-70
2021/09/09 12:22:47;;;;;;;10.95;5.85;;;30.40;51.70;;;;;;4991311;28;20125;-70
2021/09/09 12:25:28;;;;;;;9.20;5.55;;;30.30;52.10;;;;;;4992316;28;20030;-70
2021/09/09 12:28:07;;;;;;;12.93;7.82;;;30.30;53.00;;;;;;4992554;28;20038;-68
2021/09/09 12:30:38;;;;;;;10.50;5.93;;;30.20;52.20;;;;;;4992399;28;20029;-69
2021/09/09 12:33:22;;;;;;;13.52;5.82;;;30.40;52.60;;;;;;4992704;28;20073;-70